createdAt,value
2023-05-14T00:01:12.123Z,5.60
2023-05-14T00:03:41.231Z,6.03
2023-05-14T00:06:09.082Z,6.30
2023-05-14T00:08:36.117Z,5.38
2023-05-14T00:11:03.103Z,6.00
2023-05-14T00:13:30.111Z,6.13
2023-05-14T00:15:57.128Z,5.63
2023-05-14T00:18:24.178Z,6.25
2023-05-14T00:20:54.813Z,5.75
2023-05-14T00:23:22.740Z,5.65
2023-05-14T00:25:49.952Z,6.25
2023-05-14T00:28:16.954Z,5.10
2023-05-14T00:30:44.521Z,5.38
2023-05-14T00:33:11.765Z,5.68
2023-05-14T00:35:38.855Z,5.60
2023-05-14T00:38:06.233Z,5.88
2023-05-14T00:40:33.244Z,5.57
2023-05-14T00:43:00.484Z,5.70
2023-05-14T00:45:27.665Z,5.72
2023-05-14T00:47:54.732Z,6.25
2023-05-14T00:50:22.450Z,5.82
2023-05-14T00:52:49.681Z,5.68
2023-05-14T00:55:16.796Z,5.60
2023-05-14T00:57:44.184Z,5.63
2023-05-14T01:00:11.780Z,5.95
2023-05-14T01:02:38.879Z,6.32
2023-05-14T01:05:06.244Z,5.75
2023-05-14T01:07:42.230Z,5.90
2023-05-14T01:10:14.181Z,5.30
2023-05-14T01:12:59.309Z,5.78
2023-05-14T01:15:28.887Z,5.55
2023-05-14T01:18:07.832Z,5.97
2023-05-14T01:20:34.886Z,5.55
2023-05-14T01:23:01.991Z,5.53
2023-05-14T01:25:30.543Z,5.50
2023-05-14T01:28:19.557Z,5.20
2023-05-14T01:30:52.794Z,5.00
2023-05-14T01:33:20.197Z,5.75
2023-05-14T01:35:47.645Z,6.53
2023-05-14T01:38:16.136Z,5.65
2023-05-14T01:40:43.185Z,5.65
2023-05-14T01:43:10.251Z,5.78
2023-05-14T01:45:37.355Z,6.03
2023-05-14T01:48:05.417Z,6.20
2023-05-14T01:50:32.456Z,5.68
2023-05-14T01:52:59.489Z,6.20
2023-05-14T01:55:27.807Z,7.78
2023-05-14T01:57:54.802Z,6.68
2023-05-14T02:00:23.806Z,6.22
2023-05-14T02:02:51.078Z,6.18
2023-05-14T02:05:18.226Z,6.65
2023-05-14T02:07:45.264Z,7.00
2023-05-14T02:10:12.265Z,6.53
2023-05-14T02:12:39.254Z,6.00
2023-05-14T02:15:06.754Z,6.18
2023-05-14T02:17:33.857Z,6.03
2023-05-14T02:20:00.898Z,7.10
2023-05-14T02:22:45.656Z,6.43
2023-05-14T02:25:12.756Z,6.50
2023-05-14T02:27:39.740Z,7.53
2023-05-14T02:30:07.319Z,7.10
2023-05-14T02:32:34.415Z,6.93
2023-05-14T02:35:01.976Z,6.18
2023-05-14T02:37:29.022Z,6.32
2023-05-14T02:39:55.969Z,6.53
2023-05-14T02:42:23.023Z,6.15
2023-05-14T02:44:50.108Z,6.90
2023-05-14T02:47:17.124Z,5.95
2023-05-14T02:49:44.193Z,6.22
2023-05-14T02:52:11.175Z,5.53
2023-05-14T02:54:38.160Z,6.18
2023-05-14T02:57:05.396Z,5.15
2023-05-14T02:59:32.503Z,5.70
2023-05-14T03:02:00.340Z,6.07
2023-05-14T03:04:27.870Z,5.95
2023-05-14T03:06:54.874Z,5.57
2023-05-14T03:09:21.808Z,6.22
2023-05-14T03:11:49.498Z,5.93
2023-05-14T03:14:16.545Z,6.30
2023-05-14T03:16:43.583Z,5.43
2023-05-14T03:19:10.940Z,5.60
2023-05-14T03:21:37.991Z,5.45
2023-05-14T03:24:05.272Z,5.10
2023-05-14T03:26:32.263Z,6.07
2023-05-14T03:28:59.248Z,5.15
2023-05-14T03:31:26.690Z,4.65
2023-05-14T03:33:56.641Z,5.20
2023-05-14T03:36:23.746Z,5.57
2023-05-14T03:38:50.753Z,5.50
2023-05-14T03:41:19.235Z,5.35
2023-05-14T03:43:46.216Z,5.53
2023-05-14T03:46:13.367Z,5.20
2023-05-14T03:48:41.156Z,5.68
2023-05-14T03:51:08.164Z,5.38
2023-05-14T03:53:36.532Z,5.13
2023-05-14T03:56:03.646Z,5.38
2023-05-14T03:58:31.094Z,5.10
2023-05-14T04:01:00.538Z,4.78
2023-05-14T04:03:27.757Z,4.88
2023-05-14T04:05:54.949Z,5.38
2023-05-14T04:08:22.041Z,4.90
2023-05-14T04:10:50.581Z,4.97
2023-05-14T04:13:17.820Z,5.72
2023-05-14T04:15:44.966Z,5.47
2023-05-14T04:18:11.990Z,5.20
2023-05-14T04:20:39.127Z,4.80
2023-05-14T04:23:06.471Z,5.22
2023-05-14T04:25:33.491Z,5.05
2023-05-14T04:28:00.585Z,5.07
2023-05-14T04:30:27.581Z,5.13
2023-05-14T04:32:54.631Z,4.72
2023-05-14T04:35:24.648Z,5.60
2023-05-14T04:37:52.400Z,5.05
2023-05-14T04:40:19.420Z,4.72
2023-05-14T04:42:46.441Z,5.30
2023-05-14T04:45:13.686Z,5.00
2023-05-14T04:47:41.744Z,5.10
2023-05-14T04:50:09.840Z,5.40
2023-05-14T04:52:38.427Z,5.13
2023-05-14T04:55:05.968Z,4.65
2023-05-14T04:57:32.945Z,5.10
2023-05-14T04:59:59.890Z,5.47
2023-05-14T05:02:27.482Z,5.63
2023-05-14T05:04:54.501Z,5.03
2023-05-14T05:07:21.587Z,4.53
2023-05-14T05:09:48.535Z,4.60
2023-05-14T05:12:15.546Z,5.32
2023-05-14T05:14:42.523Z,4.40
2023-05-14T05:17:09.504Z,4.88
2023-05-14T05:19:43.780Z,4.78
2023-05-14T05:22:11.809Z,5.15
2023-05-14T05:24:38.849Z,5.03
2023-05-14T05:27:06.197Z,4.70
2023-05-14T05:29:33.144Z,5.00
2023-05-14T05:32:00.157Z,5.35
2023-05-14T05:34:27.567Z,5.30
2023-05-14T05:36:54.576Z,5.43
2023-05-14T05:39:21.576Z,4.82
2023-05-14T05:41:48.584Z,5.40
2023-05-14T05:44:15.677Z,5.18
2023-05-14T05:46:42.688Z,4.90
2023-05-14T05:49:09.681Z,5.13
2023-05-14T05:51:36.652Z,4.20
2023-05-14T05:54:03.783Z,4.93
2023-05-14T05:56:30.889Z,4.78
2023-05-14T05:58:57.866Z,5.10
2023-05-14T06:01:24.889Z,5.40
2023-05-14T06:03:51.863Z,4.75
2023-05-14T06:06:18.833Z,4.97
2023-05-14T06:08:45.815Z,4.40
2023-05-14T06:11:12.948Z,4.38
2023-05-14T06:13:39.931Z,4.50
2023-05-14T06:16:07.086Z,5.10
2023-05-14T06:18:34.198Z,4.43
2023-05-14T06:21:01.203Z,4.90
2023-05-14T06:23:28.210Z,4.53
2023-05-14T06:25:55.150Z,5.20
2023-05-14T06:28:22.209Z,4.47
2023-05-14T06:30:54.045Z,4.63
2023-05-14T06:33:23.527Z,4.90
2023-05-14T06:35:51.242Z,4.75
2023-05-14T06:38:18.176Z,4.28
2023-05-14T06:40:45.623Z,4.55
2023-05-14T06:43:12.563Z,5.57
2023-05-14T06:45:39.538Z,5.18
2023-05-14T06:48:06.817Z,4.93
2023-05-14T06:50:33.894Z,4.78
2023-05-14T06:53:00.880Z,4.63
2023-05-14T06:55:28.077Z,4.97
2023-05-14T06:57:55.764Z,4.13
2023-05-14T07:00:23.355Z,4.78
2023-05-14T07:02:52.164Z,5.28
2023-05-14T07:05:19.368Z,4.95
2023-05-14T07:07:46.327Z,5.72
2023-05-14T07:10:13.606Z,5.85
2023-05-14T07:12:40.618Z,6.35
2023-05-14T07:15:08.314Z,5.90
2023-05-14T07:17:35.559Z,5.93
2023-05-14T07:20:02.934Z,5.88
2023-05-14T07:22:31.121Z,6.35
2023-05-14T07:24:58.105Z,6.45
2023-05-14T07:27:25.084Z,7.10
2023-05-14T07:29:52.119Z,7.57
2023-05-14T07:32:19.203Z,7.18
2023-05-14T07:34:46.450Z,6.22
2023-05-14T07:37:13.441Z,6.68
2023-05-14T07:39:41.773Z,6.82
2023-05-14T07:42:09.174Z,7.05
2023-05-14T07:44:36.157Z,6.10
2023-05-14T07:47:04.330Z,6.32
2023-05-14T07:49:31.416Z,7.13
2023-05-14T07:51:58.727Z,5.93
2023-05-14T07:54:25.730Z,6.65
2023-05-14T07:56:52.812Z,6.10
2023-05-14T07:59:19.786Z,6.72
2023-05-14T08:01:47.050Z,5.70
2023-05-14T08:04:16.416Z,5.03
2023-05-14T08:06:43.684Z,4.90
2023-05-14T08:09:10.606Z,5.07
2023-05-14T08:11:37.741Z,5.28
2023-05-14T08:14:04.751Z,4.20
2023-05-14T08:16:31.742Z,5.15
2023-05-14T08:18:58.876Z,4.93
2023-05-14T08:21:26.017Z,4.85
2023-05-14T08:23:52.965Z,3.95
2023-05-14T08:26:19.996Z,4.78
2023-05-14T08:28:47.061Z,4.00
2023-05-14T08:31:14.870Z,4.50
2023-05-14T08:33:42.101Z,4.75
2023-05-14T08:36:09.698Z,4.70
2023-05-14T08:38:36.846Z,4.43
2023-05-14T08:41:04.634Z,3.90
2023-05-14T08:43:43.733Z,3.95
2023-05-14T08:46:11.039Z,3.85
2023-05-14T08:48:38.846Z,4.13
2023-05-14T08:51:06.378Z,3.90
2023-05-14T08:53:33.506Z,4.13
2023-05-14T08:56:01.456Z,4.20
2023-05-14T08:58:28.898Z,3.95
2023-05-14T09:00:56.263Z,3.40
2023-05-14T09:03:23.346Z,3.53
2023-05-14T09:05:51.612Z,3.75
2023-05-14T09:08:18.938Z,3.70
2023-05-14T09:10:46.209Z,3.65
2023-05-14T09:13:13.261Z,3.47
2023-05-14T09:15:41.460Z,4.10
2023-05-14T09:18:08.510Z,3.72
2023-05-14T09:20:35.564Z,4.57
2023-05-14T09:23:02.749Z,3.80
2023-05-14T09:25:32.904Z,4.32
2023-05-14T09:28:00.007Z,4.53
2023-05-14T09:30:30.159Z,3.90
2023-05-14T09:32:57.188Z,3.65
2023-05-14T09:35:24.604Z,4.10
2023-05-14T09:37:52.884Z,3.30
2023-05-14T09:40:21.119Z,3.38
2023-05-14T09:42:49.185Z,3.03
2023-05-14T09:45:16.634Z,3.50
2023-05-14T09:47:45.005Z,3.83
2023-05-14T09:50:12.645Z,3.67
2023-05-14T09:52:39.819Z,3.17
2023-05-14T09:55:07.303Z,3.63
2023-05-14T09:57:34.675Z,3.58
2023-05-14T10:00:01.936Z,3.65
2023-05-14T10:02:40.551Z,3.15
2023-05-14T10:05:08.038Z,3.55
2023-05-14T10:07:44.457Z,3.22
2023-05-14T10:10:17.137Z,3.63
2023-05-14T10:12:46.485Z,3.47
2023-05-14T10:15:17.838Z,3.03
2023-05-14T10:17:46.943Z,3.20
2023-05-14T10:20:16.211Z,3.55
2023-05-14T10:22:43.154Z,3.13
2023-05-14T10:25:10.156Z,7.40
2023-05-14T10:27:37.301Z,8.38
2023-05-14T10:30:06.884Z,8.25
2023-05-14T10:32:33.923Z,6.78
2023-05-14T10:35:01.635Z,3.05
2023-05-14T10:37:28.912Z,3.17
2023-05-14T10:40:00.321Z,3.13
2023-05-14T10:42:29.448Z,3.20
2023-05-14T10:44:58.881Z,3.03
2023-05-14T10:47:26.511Z,2.72
2023-05-14T10:49:55.050Z,3.17
2023-05-14T10:52:22.454Z,2.70
2023-05-14T10:54:53.461Z,2.78
2023-05-14T10:57:21.385Z,2.47
2023-05-14T10:59:55.728Z,2.92
2023-05-14T11:02:33.949Z,2.85
2023-05-14T11:05:05.868Z,2.72
2023-05-14T11:07:34.395Z,2.53
2023-05-14T11:10:08.721Z,2.88
2023-05-14T11:12:37.084Z,2.78
2023-05-14T11:15:06.180Z,2.40
2023-05-14T11:17:33.270Z,2.67
2023-05-14T11:20:00.370Z,2.60
2023-05-14T11:22:27.414Z,1.80
2023-05-14T11:24:54.773Z,2.75
2023-05-14T11:27:21.901Z,2.88
2023-05-14T11:29:49.073Z,3.00
2023-05-14T11:32:16.720Z,2.58
2023-05-14T11:34:47.287Z,2.83
2023-05-14T11:37:15.739Z,2.22
2023-05-14T11:39:53.608Z,2.72
2023-05-14T11:42:21.040Z,2.22
2023-05-14T11:44:49.147Z,2.63
2023-05-14T11:47:17.189Z,2.53
2023-05-14T11:49:44.222Z,2.88
2023-05-14T11:52:13.069Z,3.17
2023-05-14T11:54:40.550Z,2.40
2023-05-14T11:57:09.695Z,2.70
2023-05-14T11:59:36.749Z,2.50
2023-05-14T12:02:05.178Z,2.60
2023-05-14T12:04:32.492Z,2.63
2023-05-14T12:07:00.370Z,2.65
2023-05-14T12:09:27.331Z,3.03
2023-05-14T12:11:54.280Z,2.80
2023-05-14T12:14:22.767Z,3.50
2023-05-14T12:16:50.542Z,3.47
2023-05-14T12:19:19.377Z,3.55
2023-05-14T12:21:48.350Z,3.92
2023-05-14T12:24:17.069Z,2.95
2023-05-14T12:26:47.721Z,3.03
2023-05-14T12:29:15.900Z,3.25
2023-05-14T12:31:49.034Z,3.20
2023-05-14T12:34:16.519Z,3.75
2023-05-14T12:36:43.818Z,3.47
2023-05-14T12:39:11.062Z,3.50
2023-05-14T12:41:38.044Z,3.42
2023-05-14T12:44:05.459Z,3.13
2023-05-14T12:46:33.091Z,3.33
2023-05-14T12:49:00.219Z,3.35
2023-05-14T12:51:27.319Z,3.20
2023-05-14T12:53:54.463Z,3.50
2023-05-14T12:56:22.112Z,3.47
2023-05-14T12:58:49.162Z,3.45
2023-05-14T13:01:16.256Z,3.10
2023-05-14T13:03:43.302Z,3.42
2023-05-14T13:06:10.342Z,3.65
2023-05-14T13:08:37.363Z,2.90
2023-05-14T13:11:04.313Z,3.47
2023-05-14T13:13:31.324Z,3.25
2023-05-14T13:15:58.359Z,3.00
2023-05-14T13:18:26.698Z,2.67
2023-05-14T13:20:54.020Z,2.67
2023-05-14T13:23:21.068Z,2.83
2023-05-14T13:25:49.942Z,2.72
2023-05-14T13:28:17.186Z,2.78
2023-05-14T13:31:03.132Z,1.95
2023-05-14T13:33:30.822Z,2.60
2023-05-14T13:35:57.768Z,2.50
2023-05-14T13:38:24.768Z,2.40
2023-05-14T13:40:51.708Z,2.25
2023-05-14T13:43:20.029Z,2.40
2023-05-14T13:45:47.133Z,2.10
2023-05-14T13:48:14.193Z,2.25
2023-05-14T13:50:41.382Z,2.53
2023-05-14T13:53:08.441Z,2.60
2023-05-14T13:55:35.505Z,2.47
2023-05-14T13:58:02.615Z,2.05
2023-05-14T14:00:29.665Z,2.38
2023-05-14T14:02:56.714Z,2.35
2023-05-14T14:05:25.866Z,2.70
2023-05-14T14:08:00.637Z,2.60
2023-05-14T14:10:35.613Z,2.50
2023-05-14T14:13:02.593Z,2.25
2023-05-14T14:15:29.570Z,2.20
2023-05-14T14:17:56.634Z,2.13
2023-05-14T14:20:23.686Z,2.47
2023-05-14T14:22:50.806Z,2.00
2023-05-14T14:25:17.909Z,2.85
2023-05-14T14:27:47.400Z,2.67
2023-05-14T14:30:17.561Z,2.42
2023-05-14T14:32:48.277Z,2.53
2023-05-14T14:37:43.552Z,3.10
2023-05-14T14:40:11.018Z,2.67
2023-05-14T14:42:38.454Z,2.90
2023-05-14T14:45:06.090Z,2.42
2023-05-14T14:47:33.244Z,3.17
2023-05-14T14:50:00.246Z,3.15
2023-05-14T14:52:27.445Z,3.30
2023-05-14T14:54:55.574Z,2.92
2023-05-14T14:57:22.618Z,2.85
2023-05-14T14:59:49.754Z,2.65
2023-05-14T15:02:16.761Z,3.00
2023-05-14T15:04:43.827Z,2.28
2023-05-14T15:07:11.257Z,1.88
2023-05-14T15:09:38.666Z,2.20
2023-05-14T15:12:06.286Z,2.13
2023-05-14T15:14:33.284Z,2.30
2023-05-14T15:17:00.427Z,2.05
2023-05-14T15:19:29.117Z,2.35
2023-05-14T15:21:56.168Z,2.20
2023-05-14T15:24:25.105Z,2.35
2023-05-14T15:26:53.540Z,2.00
2023-05-14T15:29:20.914Z,2.40
2023-05-14T15:31:48.128Z,1.92
2023-05-14T15:34:15.180Z,2.17
2023-05-14T15:36:42.145Z,2.13
2023-05-14T15:39:10.528Z,2.05
2023-05-14T15:41:38.060Z,2.20
2023-05-14T15:44:05.704Z,1.60
2023-05-14T15:46:32.854Z,2.25
2023-05-14T15:48:59.863Z,1.90
2023-05-14T15:51:26.880Z,1.85
2023-05-14T15:53:54.645Z,1.83
2023-05-14T15:56:22.630Z,2.08
2023-05-14T15:58:49.980Z,2.20
2023-05-14T16:01:17.671Z,1.88
2023-05-14T16:03:44.889Z,1.80
2023-05-14T16:06:11.960Z,1.73
2023-05-14T16:08:38.956Z,1.77
2023-05-14T16:11:06.504Z,1.70
2023-05-14T16:13:34.000Z,1.70
2023-05-14T16:16:01.486Z,1.50
2023-05-14T16:18:28.619Z,1.70
2023-05-14T16:20:56.321Z,1.77
2023-05-14T16:23:23.370Z,1.70
2023-05-14T16:25:51.467Z,1.50
2023-05-14T16:28:18.449Z,1.50
2023-05-14T16:30:45.509Z,1.50
2023-05-14T16:33:12.581Z,1.50
2023-05-14T16:35:39.576Z,1.80
2023-05-14T16:38:06.660Z,1.58
2023-05-14T16:40:33.732Z,1.55
2023-05-14T16:43:00.923Z,1.40
2023-05-14T16:45:28.110Z,1.42
2023-05-14T16:47:55.479Z,1.60
2023-05-14T16:50:23.938Z,1.50
2023-05-14T16:52:51.794Z,1.40
2023-05-14T16:55:19.992Z,1.60
2023-05-14T16:57:47.338Z,1.40
2023-05-14T17:00:15.518Z,1.40
2023-05-14T17:02:43.432Z,1.60
2023-05-14T17:05:10.870Z,1.83
2023-05-14T17:07:39.527Z,1.83
2023-05-14T17:10:07.534Z,1.50
2023-05-14T17:12:34.896Z,1.58
2023-05-14T17:15:03.766Z,1.60
2023-05-14T17:17:33.819Z,1.60
2023-05-14T17:20:01.095Z,1.60
2023-05-14T17:22:28.217Z,1.90
2023-05-14T17:24:56.324Z,1.67
2023-05-14T17:27:23.414Z,1.90
2023-05-14T17:29:54.369Z,1.70
2023-05-14T17:32:21.784Z,1.50
2023-05-14T17:34:48.855Z,1.80
2023-05-14T17:37:16.228Z,2.90
2023-05-14T17:39:43.328Z,2.97
2023-05-14T17:42:10.435Z,2.00
2023-05-14T17:44:37.486Z,3.50
2023-05-14T17:47:04.965Z,9.85
2023-05-14T17:49:32.024Z,2.63
2023-05-14T17:51:59.059Z,4.95
2023-05-14T17:54:26.078Z,1.67
2023-05-14T17:56:53.530Z,1.77
2023-05-14T17:59:21.952Z,1.75
2023-05-14T18:01:50.768Z,1.77
2023-05-14T18:04:17.798Z,1.50
2023-05-14T18:06:45.981Z,1.70
2023-05-14T18:09:13.252Z,1.95
2023-05-14T18:11:40.298Z,1.92
2023-05-14T18:14:07.336Z,2.03
2023-05-14T18:16:34.413Z,1.73
2023-05-14T18:19:01.516Z,1.90
2023-05-14T18:21:28.669Z,2.17
2023-05-14T18:23:56.112Z,1.60
2023-05-14T18:26:23.250Z,2.40
2023-05-14T18:28:50.346Z,2.30
2023-05-14T18:31:17.563Z,2.95
2023-05-14T18:33:44.733Z,2.70
2023-05-14T18:36:11.821Z,2.35
2023-05-14T18:38:38.970Z,2.45
2023-05-14T18:41:06.115Z,2.08
2023-05-14T18:43:33.205Z,2.00
2023-05-14T18:46:00.697Z,2.30
2023-05-14T18:48:27.909Z,2.00
2023-05-14T18:50:55.033Z,2.50
2023-05-14T18:53:22.271Z,2.50
2023-05-14T18:55:49.450Z,2.17
2023-05-14T18:58:17.777Z,2.28
2023-05-14T19:00:44.929Z,2.33
2023-05-14T19:03:12.214Z,1.95
2023-05-14T19:05:39.576Z,2.08
2023-05-14T19:08:06.740Z,2.10
2023-05-14T19:10:34.797Z,2.70
2023-05-14T19:13:02.207Z,2.58
2023-05-14T19:15:29.373Z,2.60
2023-05-14T19:17:57.036Z,2.30
2023-05-14T19:20:24.285Z,2.25
2023-05-14T19:22:51.404Z,2.35
2023-05-14T19:25:18.607Z,1.73
2023-05-14T19:27:47.699Z,1.88
2023-05-14T19:30:15.005Z,2.40
2023-05-14T19:32:42.147Z,2.13
2023-05-14T19:35:09.536Z,2.15
2023-05-14T19:37:36.601Z,2.20
2023-05-14T19:40:04.017Z,2.47
2023-05-14T19:42:31.926Z,2.00
2023-05-14T19:44:59.087Z,2.67
2023-05-14T19:47:26.243Z,2.60
2023-05-14T19:49:53.351Z,2.30
2023-05-14T19:52:20.553Z,2.45
2023-05-14T19:54:47.653Z,2.58
2023-05-14T19:57:14.721Z,2.67
2023-05-14T19:59:41.918Z,2.20
2023-05-14T20:02:09.244Z,2.58
2023-05-14T20:04:40.061Z,2.88
2023-05-14T20:07:07.343Z,2.33
2023-05-14T20:09:34.439Z,2.05
2023-05-14T20:12:01.544Z,2.28
2023-05-14T20:14:28.693Z,1.90
2023-05-14T20:16:58.050Z,2.20
2023-05-14T20:19:26.692Z,2.38
2023-05-14T20:21:53.924Z,2.42
2023-05-14T20:24:21.076Z,2.28
2023-05-14T20:26:48.215Z,2.35
2023-05-14T20:29:15.264Z,2.50
2023-05-14T20:31:42.431Z,2.60
2023-05-14T20:34:09.616Z,2.63
2023-05-14T20:36:37.529Z,2.90
2023-05-14T20:39:06.280Z,3.40
2023-05-14T20:41:33.456Z,3.33
2023-05-14T20:44:00.633Z,2.80
2023-05-14T20:46:27.803Z,3.05
2023-05-14T20:48:55.960Z,2.83
2023-05-14T20:51:23.065Z,2.95
2023-05-14T20:53:50.110Z,2.90
2023-05-14T20:56:17.157Z,2.88
2023-05-14T20:58:44.133Z,3.28
2023-05-14T21:01:11.111Z,2.80
2023-05-14T21:03:38.217Z,2.80
2023-05-14T21:06:05.423Z,2.85
2023-05-14T21:08:33.070Z,2.95
2023-05-14T21:11:00.088Z,2.70
2023-05-14T21:13:27.068Z,2.92
2023-05-14T21:15:54.063Z,3.40
2023-05-14T21:18:21.194Z,3.00
2023-05-14T21:20:48.227Z,3.42
2023-05-14T21:23:15.778Z,3.03
2023-05-14T21:25:42.811Z,2.92
2023-05-14T21:28:09.754Z,2.97
2023-05-14T21:30:36.757Z,3.00
2023-05-14T21:33:03.859Z,3.22
2023-05-14T21:35:30.991Z,3.72
2023-05-14T21:37:58.070Z,2.83
2023-05-14T21:40:25.052Z,3.05
2023-05-14T21:42:52.076Z,2.92
2023-05-14T21:45:19.851Z,2.65
2023-05-14T21:47:47.780Z,2.83
2023-05-14T21:50:14.875Z,3.33
2023-05-14T21:52:42.152Z,3.42
2023-05-14T21:55:09.599Z,2.92
2023-05-14T21:57:36.545Z,3.17
2023-05-14T22:00:06.529Z,2.60
2023-05-14T22:02:34.294Z,3.28
2023-05-14T22:05:02.335Z,2.85
2023-05-14T22:07:30.036Z,3.53
2023-05-14T22:09:57.018Z,3.33
2023-05-14T22:12:24.133Z,2.97
2023-05-14T22:14:51.162Z,2.95
2023-05-14T22:17:18.131Z,2.90
2023-05-14T22:19:45.373Z,3.25
2023-05-14T22:22:12.346Z,3.30
2023-05-14T22:24:39.326Z,2.72
2023-05-14T22:27:06.719Z,3.38
2023-05-14T22:29:33.719Z,2.88
2023-05-14T22:32:01.114Z,2.92
2023-05-14T22:34:28.221Z,3.20
2023-05-14T22:36:55.243Z,4.53
2023-05-14T22:39:22.286Z,4.43
2023-05-14T22:41:55.050Z,5.65
2023-05-14T22:44:22.728Z,4.93
2023-05-14T22:46:49.805Z,4.78
2023-05-14T22:49:16.917Z,4.75
2023-05-14T22:51:43.854Z,5.20
2023-05-14T22:54:11.065Z,5.25
2023-05-14T22:56:38.253Z,4.88
2023-05-14T22:59:05.226Z,4.85
2023-05-14T23:01:32.295Z,5.40
2023-05-14T23:03:59.315Z,5.07
2023-05-14T23:06:26.424Z,5.32
2023-05-14T23:08:53.470Z,4.78
2023-05-14T23:11:21.499Z,4.57
2023-05-14T23:13:48.606Z,5.22
2023-05-14T23:16:15.589Z,5.00
2023-05-14T23:18:43.118Z,5.32
2023-05-14T23:21:10.240Z,4.95
2023-05-14T23:23:37.323Z,5.18
2023-05-14T23:26:04.524Z,4.63
2023-05-14T23:28:31.657Z,5.05
2023-05-14T23:30:58.707Z,4.90
2023-05-14T23:33:25.859Z,4.68
2023-05-14T23:35:53.040Z,5.07
2023-05-14T23:38:20.115Z,4.82
2023-05-14T23:40:47.121Z,4.25
2023-05-14T23:43:14.980Z,4.80
2023-05-14T23:45:41.960Z,4.80
2023-05-14T23:48:09.025Z,4.68
2023-05-14T23:50:35.997Z,4.45
2023-05-14T23:53:03.004Z,4.75
2023-05-14T23:55:29.985Z,5.10
2023-05-14T23:57:56.952Z,3.90
